sensor_id;sensor_type;location;lat;lon;timestamp;temperature;humidity
37702;DHT22;23548;51.196;6.838;2023-07-29T00:00:20;19.50;99.90
37702;DHT22;23548;51.196;6.838;2023-07-29T00:02:46;19.60;99.90
37702;DHT22;23548;51.196;6.838;2023-07-29T00:05:12;19.60;99.90
37702;DHT22;23548;51.196;6.838;2023-07-29T00:07:37;19.50;99.90
37702;DHT22;23548;51.196;6.838;2023-07-29T00:10:04;19.50;99.90
37702;DHT22;23548;51.196;6.838;2023-07-29T00:12:29;19.50;99.90
37702;DHT22;23548;51.196;6.838;2023-07-29T00:14:56;19.50;99.90
37702;DHT22;23548;51.196;6.838;2023-07-29T00:17:21;19.50;99.90
37702;DHT22;23548;51.196;6.838;2023-07-29T00:19:47;19.60;99.90
37702;DHT22;23548;51.196;6.838;2023-07-29T00:22:13;19.50;99.90
37702;DHT22;23548;51.196;6.838;2023-07-29T00:24:40;19.40;99.90
37702;DHT22;23548;51.196;6.838;2023-07-29T00:27:06;19.40;99.90
37702;DHT22;23548;51.196;6.838;2023-07-29T00:29:31;19.30;99.90
37702;DHT22;23548;51.196;6.838;2023-07-29T00:31:57;19.20;99.90
37702;DHT22;23548;51.196;6.838;2023-07-29T00:34:23;19.10;99.90
37702;DHT22;23548;51.196;6.838;2023-07-29T00:36:48;19.10;99.90
37702;DHT22;23548;51.196;6.838;2023-07-29T00:39:14;19.10;99.90
37702;DHT22;23548;51.196;6.838;2023-07-29T00:41:40;19.00;99.90
37702;DHT22;23548;51.196;6.838;2023-07-29T00:44:06;19.00;99.90
37702;DHT22;23548;51.196;6.838;2023-07-29T00:46:34;19.00;99.90
37702;DHT22;23548;51.196;6.838;2023-07-29T00:49:00;19.00;99.90
37702;DHT22;23548;51.196;6.838;2023-07-29T00:51:26;18.90;99.90
37702;DHT22;23548;51.196;6.838;2023-07-29T00:53:51;18.80;99.90
37702;DHT22;23548;51.196;6.838;2023-07-29T00:56:18;18.80;99.90
37702;DHT22;23548;51.196;6.838;2023-07-29T00:58:44;18.70;99.90
37702;DHT22;23548;51.196;6.838;2023-07-29T01:01:09;18.70;99.90
37702;DHT22;23548;51.196;6.838;2023-07-29T01:03:35;18.80;99.90
37702;DHT22;23548;51.196;6.838;2023-07-29T01:06:23;18.80;99.90
37702;DHT22;23548;51.196;6.838;2023-07-29T01:09:04;18.80;99.90
37702;DHT22;23548;51.196;6.838;2023-07-29T01:14:39;18.80;99.90
37702;DHT22;23548;51.196;6.838;2023-07-29T01:17:09;18.80;99.90
37702;DHT22;23548;51.196;6.838;2023-07-29T01:22:46;18.80;99.90
37702;DHT22;23548;51.196;6.838;2023-07-29T01:25:13;18.80;99.90
37702;DHT22;23548;51.196;6.838;2023-07-29T01:27:40;18.80;99.90
37702;DHT22;23548;51.196;6.838;2023-07-29T01:30:06;18.80;99.90
37702;DHT22;23548;51.196;6.838;2023-07-29T01:37:46;18.80;99.90
37702;DHT22;23548;51.196;6.838;2023-07-29T01:43:33;18.90;99.90
37702;DHT22;23548;51.196;6.838;2023-07-29T01:46:00;18.90;99.90
37702;DHT22;23548;51.196;6.838;2023-07-29T01:48:26;19.00;99.90
37702;DHT22;23548;51.196;6.838;2023-07-29T01:50:54;19.00;99.90
37702;DHT22;23548;51.196;6.838;2023-07-29T01:53:20;18.90;99.90
37702;DHT22;23548;51.196;6.838;2023-07-29T01:55:46;18.90;99.90
37702;DHT22;23548;51.196;6.838;2023-07-29T01:58:11;19.00;99.90
37702;DHT22;23548;51.196;6.838;2023-07-29T02:00:38;19.00;99.90
37702;DHT22;23548;51.196;6.838;2023-07-29T02:03:04;18.90;99.90
37702;DHT22;23548;51.196;6.838;2023-07-29T02:05:29;19.00;99.90
37702;DHT22;23548;51.196;6.838;2023-07-29T02:07:55;19.00;99.90
37702;DHT22;23548;51.196;6.838;2023-07-29T02:10:21;19.00;99.90
37702;DHT22;23548;51.196;6.838;2023-07-29T02:12:46;19.00;99.90
37702;DHT22;23548;51.196;6.838;2023-07-29T02:15:12;19.00;99.90
37702;DHT22;23548;51.196;6.838;2023-07-29T02:17:41;18.90;99.90
37702;DHT22;23548;51.196;6.838;2023-07-29T02:20:07;18.90;99.90
37702;DHT22;23548;51.196;6.838;2023-07-29T02:22:33;18.80;99.90
37702;DHT22;23548;51.196;6.838;2023-07-29T02:24:58;18.80;99.90
37702;DHT22;23548;51.196;6.838;2023-07-29T02:27:24;18.80;99.90
37702;DHT22;23548;51.196;6.838;2023-07-29T02:29:52;18.80;99.90
37702;DHT22;23548;51.196;6.838;2023-07-29T02:32:18;18.90;99.90
37702;DHT22;23548;51.196;6.838;2023-07-29T02:34:44;18.90;99.90
37702;DHT22;23548;51.196;6.838;2023-07-29T02:37:10;18.90;99.90
37702;DHT22;23548;51.196;6.838;2023-07-29T02:39:36;19.00;99.90
37702;DHT22;23548;51.196;6.838;2023-07-29T02:42:02;19.00;99.90
37702;DHT22;23548;51.196;6.838;2023-07-29T02:44:28;19.00;99.90
37702;DHT22;23548;51.196;6.838;2023-07-29T02:46:54;19.00;99.90
37702;DHT22;23548;51.196;6.838;2023-07-29T02:49:24;19.00;99.90
37702;DHT22;23548;51.196;6.838;2023-07-29T02:51:50;19.10;99.90
37702;DHT22;23548;51.196;6.838;2023-07-29T02:54:16;19.10;99.90
37702;DHT22;23548;51.196;6.838;2023-07-29T02:56:41;19.00;99.90
37702;DHT22;23548;51.196;6.838;2023-07-29T02:59:07;19.00;99.90
37702;DHT22;23548;51.196;6.838;2023-07-29T03:01:33;19.00;99.90
37702;DHT22;23548;51.196;6.838;2023-07-29T03:03:58;19.00;99.90
37702;DHT22;23548;51.196;6.838;2023-07-29T03:06:24;19.10;99.90
37702;DHT22;23548;51.196;6.838;2023-07-29T03:08:50;19.00;99.90
37702;DHT22;23548;51.196;6.838;2023-07-29T03:11:16;19.00;99.90
37702;DHT22;23548;51.196;6.838;2023-07-29T03:13:43;19.00;99.90
37702;DHT22;23548;51.196;6.838;2023-07-29T03:16:10;19.00;99.90
37702;DHT22;23548;51.196;6.838;2023-07-29T03:18:36;19.00;99.90
37702;DHT22;23548;51.196;6.838;2023-07-29T03:21:03;19.00;99.90
37702;DHT22;23548;51.196;6.838;2023-07-29T03:23:29;19.00;99.90
37702;DHT22;23548;51.196;6.838;2023-07-29T03:25:57;19.10;99.90
37702;DHT22;23548;51.196;6.838;2023-07-29T03:28:29;19.00;99.90
37702;DHT22;23548;51.196;6.838;2023-07-29T03:30:55;19.10;99.90
37702;DHT22;23548;51.196;6.838;2023-07-29T03:33:21;19.10;99.90
37702;DHT22;23548;51.196;6.838;2023-07-29T03:35:47;19.00;99.90
37702;DHT22;23548;51.196;6.838;2023-07-29T03:38:13;19.00;99.90
37702;DHT22;23548;51.196;6.838;2023-07-29T03:40:40;19.00;99.90
37702;DHT22;23548;51.196;6.838;2023-07-29T03:43:06;19.00;99.90
37702;DHT22;23548;51.196;6.838;2023-07-29T03:45:32;19.00;99.90
37702;DHT22;23548;51.196;6.838;2023-07-29T03:47:58;19.00;99.90
37702;DHT22;23548;51.196;6.838;2023-07-29T03:50:24;19.00;99.90
37702;DHT22;23548;51.196;6.838;2023-07-29T03:52:50;18.90;99.90
37702;DHT22;23548;51.196;6.838;2023-07-29T03:55:16;18.90;99.90
37702;DHT22;23548;51.196;6.838;2023-07-29T03:57:42;18.90;99.90
37702;DHT22;23548;51.196;6.838;2023-07-29T04:00:08;18.90;99.90
37702;DHT22;23548;51.196;6.838;2023-07-29T04:02:34;19.00;99.90
37702;DHT22;23548;51.196;6.838;2023-07-29T04:05:03;19.00;99.90
37702;DHT22;23548;51.196;6.838;2023-07-29T04:07:30;19.00;99.90
37702;DHT22;23548;51.196;6.838;2023-07-29T04:09:56;19.00;99.90
37702;DHT22;23548;51.196;6.838;2023-07-29T04:12:22;19.00;99.90
37702;DHT22;23548;51.196;6.838;2023-07-29T04:14:49;19.00;99.90
37702;DHT22;23548;51.196;6.838;2023-07-29T04:17:15;19.00;99.90
37702;DHT22;23548;51.196;6.838;2023-07-29T04:19:40;19.00;99.90
37702;DHT22;23548;51.196;6.838;2023-07-29T04:22:06;19.00;99.90
37702;DHT22;23548;51.196;6.838;2023-07-29T04:24:32;19.10;99.90
37702;DHT22;23548;51.196;6.838;2023-07-29T04:26:57;19.00;99.90
37702;DHT22;23548;51.196;6.838;2023-07-29T04:29:23;19.00;99.90
37702;DHT22;23548;51.196;6.838;2023-07-29T04:31:52;19.00;99.90
37702;DHT22;23548;51.196;6.838;2023-07-29T04:34:19;19.00;99.90
37702;DHT22;23548;51.196;6.838;2023-07-29T04:36:47;19.00;99.90
37702;DHT22;23548;51.196;6.838;2023-07-29T04:39:14;19.00;99.90
37702;DHT22;23548;51.196;6.838;2023-07-29T04:41:40;19.00;99.90
37702;DHT22;23548;51.196;6.838;2023-07-29T04:44:05;18.90;99.90
37702;DHT22;23548;51.196;6.838;2023-07-29T04:46:31;18.90;99.90
37702;DHT22;23548;51.196;6.838;2023-07-29T04:48:57;18.90;99.90
37702;DHT22;23548;51.196;6.838;2023-07-29T04:51:23;18.90;99.90
37702;DHT22;23548;51.196;6.838;2023-07-29T04:53:49;19.00;99.90
37702;DHT22;23548;51.196;6.838;2023-07-29T04:56:14;19.00;99.90
37702;DHT22;23548;51.196;6.838;2023-07-29T04:58:40;19.10;99.90
37702;DHT22;23548;51.196;6.838;2023-07-29T05:01:06;19.20;99.90
37702;DHT22;23548;51.196;6.838;2023-07-29T05:03:32;19.20;99.90
37702;DHT22;23548;51.196;6.838;2023-07-29T05:05:58;19.30;99.90
37702;DHT22;23548;51.196;6.838;2023-07-29T05:08:28;19.30;99.90
37702;DHT22;23548;51.196;6.838;2023-07-29T05:10:55;19.30;99.90
37702;DHT22;23548;51.196;6.838;2023-07-29T05:13:22;19.30;99.90
37702;DHT22;23548;51.196;6.838;2023-07-29T05:15:48;19.30;99.90
37702;DHT22;23548;51.196;6.838;2023-07-29T05:18:15;19.30;99.90
37702;DHT22;23548;51.196;6.838;2023-07-29T05:20:41;19.30;99.90
37702;DHT22;23548;51.196;6.838;2023-07-29T05:23:07;19.30;99.90
37702;DHT22;23548;51.196;6.838;2023-07-29T05:25:33;19.40;99.90
37702;DHT22;23548;51.196;6.838;2023-07-29T05:28:02;19.40;99.90
37702;DHT22;23548;51.196;6.838;2023-07-29T05:30:29;19.40;99.90
37702;DHT22;23548;51.196;6.838;2023-07-29T05:32:57;19.40;99.90
37702;DHT22;23548;51.196;6.838;2023-07-29T05:35:24;19.50;99.90
37702;DHT22;23548;51.196;6.838;2023-07-29T05:37:50;19.50;99.90
37702;DHT22;23548;51.196;6.838;2023-07-29T05:40:15;19.40;99.90
37702;DHT22;23548;51.196;6.838;2023-07-29T05:42:41;19.40;99.90
37702;DHT22;23548;51.196;6.838;2023-07-29T05:45:07;19.30;99.90
37702;DHT22;23548;51.196;6.838;2023-07-29T05:47:33;19.30;99.90
37702;DHT22;23548;51.196;6.838;2023-07-29T05:49:59;19.30;99.90
37702;DHT22;23548;51.196;6.838;2023-07-29T05:52:27;19.30;99.90
37702;DHT22;23548;51.196;6.838;2023-07-29T05:54:53;19.30;99.90
37702;DHT22;23548;51.196;6.838;2023-07-29T05:57:19;19.20;99.90
37702;DHT22;23548;51.196;6.838;2023-07-29T05:59:45;19.20;99.90
37702;DHT22;23548;51.196;6.838;2023-07-29T06:02:10;19.20;99.90
37702;DHT22;23548;51.196;6.838;2023-07-29T06:04:36;19.30;99.90
37702;DHT22;23548;51.196;6.838;2023-07-29T06:07:02;19.50;99.90
37702;DHT22;23548;51.196;6.838;2023-07-29T06:09:28;19.40;99.90
37702;DHT22;23548;51.196;6.838;2023-07-29T06:11:54;19.50;99.90
37702;DHT22;23548;51.196;6.838;2023-07-29T06:14:20;19.50;99.90
37702;DHT22;23548;51.196;6.838;2023-07-29T06:16:45;19.40;99.90
37702;DHT22;23548;51.196;6.838;2023-07-29T06:19:11;19.50;99.90
37702;DHT22;23548;51.196;6.838;2023-07-29T06:21:38;19.50;99.90
37702;DHT22;23548;51.196;6.838;2023-07-29T06:24:04;19.40;99.90
37702;DHT22;23548;51.196;6.838;2023-07-29T06:26:30;19.40;99.90
37702;DHT22;23548;51.196;6.838;2023-07-29T06:28:56;19.40;99.90
37702;DHT22;23548;51.196;6.838;2023-07-29T06:31:22;19.50;99.90
37702;DHT22;23548;51.196;6.838;2023-07-29T06:33:48;19.40;99.90
37702;DHT22;23548;51.196;6.838;2023-07-29T06:36:13;19.40;99.90
37702;DHT22;23548;51.196;6.838;2023-07-29T06:38:40;19.60;99.90
37702;DHT22;23548;51.196;6.838;2023-07-29T06:41:06;19.50;99.90
37702;DHT22;23548;51.196;6.838;2023-07-29T06:43:32;19.50;99.90
37702;DHT22;23548;51.196;6.838;2023-07-29T06:45:58;19.60;99.90
37702;DHT22;23548;51.196;6.838;2023-07-29T06:48:23;19.60;99.90
37702;DHT22;23548;51.196;6.838;2023-07-29T06:50:50;19.70;99.90
37702;DHT22;23548;51.196;6.838;2023-07-29T06:53:16;19.70;99.90
37702;DHT22;23548;51.196;6.838;2023-07-29T06:55:42;19.60;99.90
37702;DHT22;23548;51.196;6.838;2023-07-29T06:58:08;19.70;99.90
37702;DHT22;23548;51.196;6.838;2023-07-29T07:00:34;19.80;99.90
37702;DHT22;23548;51.196;6.838;2023-07-29T07:03:00;19.70;99.90
37702;DHT22;23548;51.196;6.838;2023-07-29T07:05:26;19.80;99.90
37702;DHT22;23548;51.196;6.838;2023-07-29T07:07:52;19.90;99.90
37702;DHT22;23548;51.196;6.838;2023-07-29T07:10:18;19.90;99.90
37702;DHT22;23548;51.196;6.838;2023-07-29T07:12:44;19.90;99.90
37702;DHT22;23548;51.196;6.838;2023-07-29T07:15:10;19.80;99.90
37702;DHT22;23548;51.196;6.838;2023-07-29T07:17:36;19.80;99.90
37702;DHT22;23548;51.196;6.838;2023-07-29T07:20:05;20.00;99.90
37702;DHT22;23548;51.196;6.838;2023-07-29T07:22:31;20.20;99.90
37702;DHT22;23548;51.196;6.838;2023-07-29T07:24:56;20.30;99.90
37702;DHT22;23548;51.196;6.838;2023-07-29T07:27:22;20.30;99.90
37702;DHT22;23548;51.196;6.838;2023-07-29T07:29:48;20.40;99.90
37702;DHT22;23548;51.196;6.838;2023-07-29T07:32:14;20.50;99.90
37702;DHT22;23548;51.196;6.838;2023-07-29T07:34:40;20.40;99.90
37702;DHT22;23548;51.196;6.838;2023-07-29T07:37:06;20.60;99.90
37702;DHT22;23548;51.196;6.838;2023-07-29T07:39:32;20.80;99.90
37702;DHT22;23548;51.196;6.838;2023-07-29T07:41:58;20.70;99.90
37702;DHT22;23548;51.196;6.838;2023-07-29T07:44:23;20.80;99.90
37702;DHT22;23548;51.196;6.838;2023-07-29T07:46:52;20.80;99.90
37702;DHT22;23548;51.196;6.838;2023-07-29T07:49:18;20.80;99.90
37702;DHT22;23548;51.196;6.838;2023-07-29T07:51:44;21.00;99.90
37702;DHT22;23548;51.196;6.838;2023-07-29T07:54:10;20.90;99.90
37702;DHT22;23548;51.196;6.838;2023-07-29T07:56:35;20.70;99.90
37702;DHT22;23548;51.196;6.838;2023-07-29T07:59:03;20.40;99.90
37702;DHT22;23548;51.196;6.838;2023-07-29T08:01:34;20.20;99.90
37702;DHT22;23548;51.196;6.838;2023-07-29T08:04:01;20.30;99.90
37702;DHT22;23548;51.196;6.838;2023-07-29T08:06:27;20.60;99.90
37702;DHT22;23548;51.196;6.838;2023-07-29T08:08:52;21.00;99.90
37702;DHT22;23548;51.196;6.838;2023-07-29T08:11:18;21.30;99.90
37702;DHT22;23548;51.196;6.838;2023-07-29T08:13:44;21.40;99.90
37702;DHT22;23548;51.196;6.838;2023-07-29T08:16:12;21.60;99.90
37702;DHT22;23548;51.196;6.838;2023-07-29T08:18:37;21.70;99.90
37702;DHT22;23548;51.196;6.838;2023-07-29T08:21:03;21.60;99.90
37702;DHT22;23548;51.196;6.838;2023-07-29T08:23:30;21.60;99.90
37702;DHT22;23548;51.196;6.838;2023-07-29T08:25:58;22.20;99.90
37702;DHT22;23548;51.196;6.838;2023-07-29T08:28:29;22.60;99.90
37702;DHT22;23548;51.196;6.838;2023-07-29T08:30:55;22.80;99.90
37702;DHT22;23548;51.196;6.838;2023-07-29T08:33:21;22.80;99.90
37702;DHT22;23548;51.196;6.838;2023-07-29T08:35:46;22.80;99.90
37702;DHT22;23548;51.196;6.838;2023-07-29T08:38:12;22.80;99.90
37702;DHT22;23548;51.196;6.838;2023-07-29T08:40:42;22.70;99.90
37702;DHT22;23548;51.196;6.838;2023-07-29T08:43:11;22.70;99.90
37702;DHT22;23548;51.196;6.838;2023-07-29T08:45:38;22.50;99.90
37702;DHT22;23548;51.196;6.838;2023-07-29T08:48:08;22.30;99.90
37702;DHT22;23548;51.196;6.838;2023-07-29T08:50:36;22.00;99.90
37702;DHT22;23548;51.196;6.838;2023-07-29T08:53:04;22.00;99.90
37702;DHT22;23548;51.196;6.838;2023-07-29T08:55:31;22.30;99.90
37702;DHT22;23548;51.196;6.838;2023-07-29T08:57:58;22.30;99.90
37702;DHT22;23548;51.196;6.838;2023-07-29T09:00:25;22.30;99.90
37702;DHT22;23548;51.196;6.838;2023-07-29T09:02:52;22.40;99.90
37702;DHT22;23548;51.196;6.838;2023-07-29T09:05:18;22.40;99.90
37702;DHT22;23548;51.196;6.838;2023-07-29T09:07:44;22.50;99.90
37702;DHT22;23548;51.196;6.838;2023-07-29T09:10:13;23.00;99.90
37702;DHT22;23548;51.196;6.838;2023-07-29T09:12:39;22.90;99.90
37702;DHT22;23548;51.196;6.838;2023-07-29T09:15:06;22.80;99.90
37702;DHT22;23548;51.196;6.838;2023-07-29T09:17:35;22.90;99.90
37702;DHT22;23548;51.196;6.838;2023-07-29T09:20:01;22.80;99.90
37702;DHT22;23548;51.196;6.838;2023-07-29T09:22:27;22.40;99.90
37702;DHT22;23548;51.196;6.838;2023-07-29T09:24:53;22.20;99.90
37702;DHT22;23548;51.196;6.838;2023-07-29T09:27:26;22.30;99.90
37702;DHT22;23548;51.196;6.838;2023-07-29T09:29:53;22.90;99.90
37702;DHT22;23548;51.196;6.838;2023-07-29T09:32:21;23.30;99.90
37702;DHT22;23548;51.196;6.838;2023-07-29T09:34:47;23.00;99.90
37702;DHT22;23548;51.196;6.838;2023-07-29T09:37:23;23.10;99.90
37702;DHT22;23548;51.196;6.838;2023-07-29T09:39:50;23.20;99.90
37702;DHT22;23548;51.196;6.838;2023-07-29T09:42:20;23.20;99.90
37702;DHT22;23548;51.196;6.838;2023-07-29T09:44:46;23.30;99.90
37702;DHT22;23548;51.196;6.838;2023-07-29T09:47:20;23.00;99.90
37702;DHT22;23548;51.196;6.838;2023-07-29T09:49:46;23.10;99.90
37702;DHT22;23548;51.196;6.838;2023-07-29T09:52:13;22.90;99.90
37702;DHT22;23548;51.196;6.838;2023-07-29T09:54:39;23.00;99.90
37702;DHT22;23548;51.196;6.838;2023-07-29T09:57:07;23.00;99.90
37702;DHT22;23548;51.196;6.838;2023-07-29T09:59:35;23.00;99.90
37702;DHT22;23548;51.196;6.838;2023-07-29T10:02:01;22.90;99.90
37702;DHT22;23548;51.196;6.838;2023-07-29T10:04:29;22.90;99.90
37702;DHT22;23548;51.196;6.838;2023-07-29T10:06:56;23.30;99.90
37702;DHT22;23548;51.196;6.838;2023-07-29T10:09:23;23.20;99.90
37702;DHT22;23548;51.196;6.838;2023-07-29T10:11:50;22.80;99.90
37702;DHT22;23548;51.196;6.838;2023-07-29T10:14:19;23.20;99.90
37702;DHT22;23548;51.196;6.838;2023-07-29T10:16:46;23.60;99.90
37702;DHT22;23548;51.196;6.838;2023-07-29T10:19:12;23.40;99.90
37702;DHT22;23548;51.196;6.838;2023-07-29T10:21:41;22.90;99.90
37702;DHT22;23548;51.196;6.838;2023-07-29T10:24:15;23.10;99.90
37702;DHT22;23548;51.196;6.838;2023-07-29T10:26:46;22.80;99.90
37702;DHT22;23548;51.196;6.838;2023-07-29T10:29:14;22.80;99.90
37702;DHT22;23548;51.196;6.838;2023-07-29T10:31:44;23.10;99.90
37702;DHT22;23548;51.196;6.838;2023-07-29T10:34:11;23.60;99.90
37702;DHT22;23548;51.196;6.838;2023-07-29T10:36:38;23.50;99.90
37702;DHT22;23548;51.196;6.838;2023-07-29T10:39:04;23.60;99.90
37702;DHT22;23548;51.196;6.838;2023-07-29T10:41:56;23.70;99.90
37702;DHT22;23548;51.196;6.838;2023-07-29T10:47:25;22.90;99.90
37702;DHT22;23548;51.196;6.838;2023-07-29T10:49:57;22.50;99.90
37702;DHT22;23548;51.196;6.838;2023-07-29T10:55:02;22.10;99.90
37702;DHT22;23548;51.196;6.838;2023-07-29T10:57:39;22.30;99.90
37702;DHT22;23548;51.196;6.838;2023-07-29T11:00:07;22.80;99.90
37702;DHT22;23548;51.196;6.838;2023-07-29T11:02:37;23.40;99.90
37702;DHT22;23548;51.196;6.838;2023-07-29T11:05:17;23.40;99.90
37702;DHT22;23548;51.196;6.838;2023-07-29T11:07:45;23.60;99.90
37702;DHT22;23548;51.196;6.838;2023-07-29T11:10:11;24.40;99.90
37702;DHT22;23548;51.196;6.838;2023-07-29T11:12:51;25.30;99.90
37702;DHT22;23548;51.196;6.838;2023-07-29T11:15:24;26.00;99.90
37702;DHT22;23548;51.196;6.838;2023-07-29T11:18:00;26.30;99.90
37702;DHT22;23548;51.196;6.838;2023-07-29T11:20:32;26.00;99.90
37702;DHT22;23548;51.196;6.838;2023-07-29T11:23:00;25.10;99.90
37702;DHT22;23548;51.196;6.838;2023-07-29T11:25:27;24.40;99.90
37702;DHT22;23548;51.196;6.838;2023-07-29T11:27:56;24.20;99.90
37702;DHT22;23548;51.196;6.838;2023-07-29T11:30:23;23.70;99.90
37702;DHT22;23548;51.196;6.838;2023-07-29T11:32:49;23.10;99.90
37702;DHT22;23548;51.196;6.838;2023-07-29T11:35:18;22.70;99.90
37702;DHT22;23548;51.196;6.838;2023-07-29T11:37:46;22.40;99.90
37702;DHT22;23548;51.196;6.838;2023-07-29T11:40:20;22.70;99.90
37702;DHT22;23548;51.196;6.838;2023-07-29T11:42:48;23.60;99.90
37702;DHT22;23548;51.196;6.838;2023-07-29T11:45:16;24.10;99.90
37702;DHT22;23548;51.196;6.838;2023-07-29T11:47:41;24.90;99.90
37702;DHT22;23548;51.196;6.838;2023-07-29T11:50:09;24.70;99.90
37702;DHT22;23548;51.196;6.838;2023-07-29T11:52:36;24.80;99.90
37702;DHT22;23548;51.196;6.838;2023-07-29T11:55:04;24.70;99.90
37702;DHT22;23548;51.196;6.838;2023-07-29T11:57:36;25.30;99.90
37702;DHT22;23548;51.196;6.838;2023-07-29T12:00:08;25.20;99.90
37702;DHT22;23548;51.196;6.838;2023-07-29T12:02:39;24.80;99.90
37702;DHT22;23548;51.196;6.838;2023-07-29T12:05:06;24.30;99.90
37702;DHT22;23548;51.196;6.838;2023-07-29T12:07:32;24.40;99.90
37702;DHT22;23548;51.196;6.838;2023-07-29T12:10:03;24.80;99.90
37702;DHT22;23548;51.196;6.838;2023-07-29T12:12:29;24.70;99.90
37702;DHT22;23548;51.196;6.838;2023-07-29T12:14:55;24.60;99.90
37702;DHT22;23548;51.196;6.838;2023-07-29T12:17:21;24.10;99.90
37702;DHT22;23548;51.196;6.838;2023-07-29T12:19:46;24.30;99.90
37702;DHT22;23548;51.196;6.838;2023-07-29T12:22:18;24.50;99.90
37702;DHT22;23548;51.196;6.838;2023-07-29T12:24:44;24.30;99.90
37702;DHT22;23548;51.196;6.838;2023-07-29T12:27:12;24.50;99.90
37702;DHT22;23548;51.196;6.838;2023-07-29T12:29:44;25.00;99.90
37702;DHT22;23548;51.196;6.838;2023-07-29T12:32:12;25.30;99.90
37702;DHT22;23548;51.196;6.838;2023-07-29T12:34:38;25.20;99.90
37702;DHT22;23548;51.196;6.838;2023-07-29T12:37:07;25.40;99.90
37702;DHT22;23548;51.196;6.838;2023-07-29T12:39:35;25.90;99.90
37702;DHT22;23548;51.196;6.838;2023-07-29T12:42:05;24.80;99.90
37702;DHT22;23548;51.196;6.838;2023-07-29T12:44:33;24.80;99.90
37702;DHT22;23548;51.196;6.838;2023-07-29T12:47:01;25.20;99.90
37702;DHT22;23548;51.196;6.838;2023-07-29T12:49:28;25.20;99.90
37702;DHT22;23548;51.196;6.838;2023-07-29T12:51:58;25.20;99.90
37702;DHT22;23548;51.196;6.838;2023-07-29T12:54:24;24.90;99.90
37702;DHT22;23548;51.196;6.838;2023-07-29T12:56:51;25.50;99.90
37702;DHT22;23548;51.196;6.838;2023-07-29T12:59:17;25.70;99.90
37702;DHT22;23548;51.196;6.838;2023-07-29T13:01:43;26.00;99.90
37702;DHT22;23548;51.196;6.838;2023-07-29T13:04:10;26.00;99.90
37702;DHT22;23548;51.196;6.838;2023-07-29T13:06:36;26.20;99.90
37702;DHT22;23548;51.196;6.838;2023-07-29T13:09:02;25.90;99.90
37702;DHT22;23548;51.196;6.838;2023-07-29T13:11:28;25.60;99.90
37702;DHT22;23548;51.196;6.838;2023-07-29T13:13:54;25.30;99.90
37702;DHT22;23548;51.196;6.838;2023-07-29T13:16:20;25.00;99.90
37702;DHT22;23548;51.196;6.838;2023-07-29T13:18:46;24.70;99.90
37702;DHT22;23548;51.196;6.838;2023-07-29T13:21:12;24.60;99.90
37702;DHT22;23548;51.196;6.838;2023-07-29T13:23:38;24.70;99.90
37702;DHT22;23548;51.196;6.838;2023-07-29T13:26:04;24.50;99.90
37702;DHT22;23548;51.196;6.838;2023-07-29T13:28:30;24.30;99.90
37702;DHT22;23548;51.196;6.838;2023-07-29T13:30:56;24.40;99.90
37702;DHT22;23548;51.196;6.838;2023-07-29T13:33:22;23.80;99.90
37702;DHT22;23548;51.196;6.838;2023-07-29T13:35:48;23.80;99.90
37702;DHT22;23548;51.196;6.838;2023-07-29T13:38:14;23.70;99.90
37702;DHT22;23548;51.196;6.838;2023-07-29T13:40:39;23.70;99.90
37702;DHT22;23548;51.196;6.838;2023-07-29T13:43:05;23.70;99.90
37702;DHT22;23548;51.196;6.838;2023-07-29T13:45:31;23.90;99.90
37702;DHT22;23548;51.196;6.838;2023-07-29T13:47:57;24.10;99.90
37702;DHT22;23548;51.196;6.838;2023-07-29T13:50:23;24.60;99.90
37702;DHT22;23548;51.196;6.838;2023-07-29T13:52:49;24.70;99.90
37702;DHT22;23548;51.196;6.838;2023-07-29T13:55:14;24.40;99.90
37702;DHT22;23548;51.196;6.838;2023-07-29T13:57:46;24.30;99.90
37702;DHT22;23548;51.196;6.838;2023-07-29T14:00:11;24.40;99.90
37702;DHT22;23548;51.196;6.838;2023-07-29T14:02:37;24.50;99.90
37702;DHT22;23548;51.196;6.838;2023-07-29T14:05:04;24.10;99.90
37702;DHT22;23548;51.196;6.838;2023-07-29T14:07:30;24.10;99.90
37702;DHT22;23548;51.196;6.838;2023-07-29T14:09:56;24.10;99.90
37702;DHT22;23548;51.196;6.838;2023-07-29T14:12:22;24.10;99.90
37702;DHT22;23548;51.196;6.838;2023-07-29T14:14:48;23.80;99.90
37702;DHT22;23548;51.196;6.838;2023-07-29T14:17:13;23.70;99.90
37702;DHT22;23548;51.196;6.838;2023-07-29T14:19:39;23.60;99.90
37702;DHT22;23548;51.196;6.838;2023-07-29T14:22:05;23.80;99.90
37702;DHT22;23548;51.196;6.838;2023-07-29T14:24:31;23.80;99.90
37702;DHT22;23548;51.196;6.838;2023-07-29T14:26:57;24.20;99.90
37702;DHT22;23548;51.196;6.838;2023-07-29T14:29:23;24.30;99.90
37702;DHT22;23548;51.196;6.838;2023-07-29T14:31:48;24.50;99.90
37702;DHT22;23548;51.196;6.838;2023-07-29T14:34:14;25.00;99.90
37702;DHT22;23548;51.196;6.838;2023-07-29T14:36:40;25.00;99.90
37702;DHT22;23548;51.196;6.838;2023-07-29T14:39:06;25.30;99.90
37702;DHT22;23548;51.196;6.838;2023-07-29T14:41:32;25.50;99.90
37702;DHT22;23548;51.196;6.838;2023-07-29T14:43:57;25.20;99.90
37702;DHT22;23548;51.196;6.838;2023-07-29T14:46:23;25.30;99.90
37702;DHT22;23548;51.196;6.838;2023-07-29T14:48:49;25.40;99.90
37702;DHT22;23548;51.196;6.838;2023-07-29T14:51:15;24.80;99.90
37702;DHT22;23548;51.196;6.838;2023-07-29T14:53:41;24.70;99.90
37702;DHT22;23548;51.196;6.838;2023-07-29T14:56:07;24.70;99.90
37702;DHT22;23548;51.196;6.838;2023-07-29T14:58:32;24.70;99.90
37702;DHT22;23548;51.196;6.838;2023-07-29T15:00:58;25.20;99.90
37702;DHT22;23548;51.196;6.838;2023-07-29T15:03:24;24.70;99.90
37702;DHT22;23548;51.196;6.838;2023-07-29T15:05:50;25.60;99.90
37702;DHT22;23548;51.196;6.838;2023-07-29T15:08:16;26.10;99.90
37702;DHT22;23548;51.196;6.838;2023-07-29T15:10:47;25.50;99.90
37702;DHT22;23548;51.196;6.838;2023-07-29T15:13:14;26.10;99.90
37702;DHT22;23548;51.196;6.838;2023-07-29T15:15:43;27.10;99.90
37702;DHT22;23548;51.196;6.838;2023-07-29T15:18:10;28.20;99.90
37702;DHT22;23548;51.196;6.838;2023-07-29T15:20:35;29.10;99.90
37702;DHT22;23548;51.196;6.838;2023-07-29T15:23:01;30.30;96.70
37702;DHT22;23548;51.196;6.838;2023-07-29T15:25:27;30.30;95.20
37702;DHT22;23548;51.196;6.838;2023-07-29T15:27:53;29.10;95.00
37702;DHT22;23548;51.196;6.838;2023-07-29T15:30:19;27.80;97.40
37702;DHT22;23548;51.196;6.838;2023-07-29T15:32:44;28.10;97.70
37702;DHT22;23548;51.196;6.838;2023-07-29T15:35:11;28.60;96.90
37702;DHT22;23548;51.196;6.838;2023-07-29T15:37:37;29.50;95.70
37702;DHT22;23548;51.196;6.838;2023-07-29T15:40:03;31.90;92.10
37702;DHT22;23548;51.196;6.838;2023-07-29T15:42:29;32.40;87.70
37702;DHT22;23548;51.196;6.838;2023-07-29T15:44:55;33.10;84.70
37702;DHT22;23548;51.196;6.838;2023-07-29T15:47:21;33.20;81.90